Time;durP1;ratioP1;P1;durP2;ratioP2;P2;SDS_P1;SDS_P2;PMS_P1;PMS_P2;Temp;Humidity;BMP_temperature;BMP_pressure;BME280_temperature;BME280_humidity;BME280_pressure;Samples;Min_cycle;Max_cycle;Signal;HPM_P1;HPM_P2
2023/06/11 00:02:21;;;;;;;9.88;3.70;;;;;;;11.34;45.58;100712.59;6135337;23;20041;-93
2023/06/11 00:04:49;;;;;;;10.38;3.60;;;;;;;11.53;45.63;100746.44;6137097;23;20021;-93
2023/06/11 00:07:16;;;;;;;14.95;3.70;;;;;;;11.49;45.79;100750.84;6160355;23;20105;-89
2023/06/11 00:09:42;;;;;;;;;;;;;;;11.51;45.67;100745.06;6137626;23;20025;-88
2023/06/11 00:12:08;;;;;;;8.40;3.47;;;;;;;11.48;46.00;100740.97;6136603;23;19916;-94
2023/06/11 00:14:34;;;;;;;8.13;3.92;;;;;;;11.36;45.81;100720.56;6090358;23;20037;-90
2023/06/11 00:17:00;;;;;;;35.28;4.40;;;;;;;11.58;46.11;100758.47;6137277;23;20522;-91
2023/06/11 00:19:29;;;;;;;19.23;5.28;;;;;;;11.19;46.02;100709.94;6111725;23;20017;-91
2023/06/11 00:21:56;;;;;;;10.00;3.40;;;;;;;11.07;46.20;100690.34;6135676;23;20021;-95
2023/06/11 00:24:22;;;;;;;29.23;4.15;;;;;;;11.23;46.77;100711.03;6112339;23;20018;-93
2023/06/11 00:26:48;;;;;;;8.63;3.85;;;;;;;11.38;46.47;100746.53;6111137;23;20017;-92
2023/06/11 00:29:14;;;;;;;10.00;3.78;;;;;;;11.20;46.49;100714.34;6135257;23;20013;-89
2023/06/11 00:31:40;;;;;;;8.25;3.78;;;;;;;11.28;46.57;100732.91;6160507;23;20119;-91
2023/06/11 00:34:06;;;;;;;5.68;3.33;;;;;;;11.32;46.60;100735.88;6136646;23;20486;-90
2023/06/11 00:36:33;;;;;;;5.07;3.50;;;;;;;11.35;47.36;100763.50;6136360;23;20017;-92
2023/06/11 00:38:59;;;;;;;8.27;4.43;;;;;;;11.01;47.67;100714.16;6137168;23;20028;-94
2023/06/11 00:41:26;;;;;;;8.48;4.20;;;;;;;11.07;47.15;100718.50;6159962;23;20017;-90
2023/06/11 00:43:54;;;;;;;16.08;4.25;;;;;;;11.09;47.58;100724.50;6134747;23;20013;-91
2023/06/11 00:46:21;;;;;;;9.10;4.25;;;;;;;11.19;47.75;100734.59;6136138;23;20069;-91
2023/06/11 00:48:51;;;;;;;9.35;3.50;;;;;;;11.29;48.69;100760.00;6112386;23;20013;-91
2023/06/11 00:51:20;;;;;;;12.43;3.47;;;;;;;11.12;48.50;100734.91;6161267;23;20498;-91
2023/06/11 00:53:47;;;;;;;11.15;3.80;;;;;;;11.03;48.01;100737.41;6136382;23;20021;-92
2023/06/11 00:56:17;;;;;;;7.55;3.60;;;;;;;11.26;47.82;100767.97;6137072;23;20017;-90
2023/06/11 00:58:51;;;;;;;7.15;3.03;;;;;;;11.00;48.05;100724.28;6137306;23;20044;-90
2023/06/11 01:01:41;;;;;;;7.32;3.35;;;;;;;11.13;48.47;100766.66;6115775;23;20013;-91
2023/06/11 01:04:23;;;;;;;7.18;3.38;;;;;;;10.99;48.36;100730.88;6169856;23;20018;-90
2023/06/11 01:06:54;;;;;;;6.45;3.17;;;;;;;11.25;48.16;100774.53;6150248;23;20021;-91
2023/06/11 01:09:24;;;;;;;5.88;3.00;;;;;;;11.08;48.55;100744.78;6171230;23;19989;-91
2023/06/11 01:11:53;;;;;;;10.90;3.10;;;;;;;11.12;48.64;100775.13;6151852;23;20004;-89
2023/06/11 01:14:20;;;;;;;13.02;3.63;;;;;;;11.07;48.54;100756.00;6145852;23;20021;-92
2023/06/11 01:17:02;;;;;;;6.68;2.85;;;;;;;11.05;48.72;100768.03;6141734;23;20025;-91
2023/06/11 01:19:52;;;;;;;7.18;3.20;;;;;;;11.21;48.58;100776.19;6166799;23;20018;-92
2023/06/11 01:22:29;;;;;;;7.22;2.90;;;;;;;10.96;48.03;100736.91;6119327;23;20021;-93
2023/06/11 01:25:12;;;;;;;5.97;3.05;;;;;;;10.99;48.87;100739.09;6117390;23;20028;-91
2023/06/11 01:28:05;;;;;;;6.88;2.85;;;;;;;11.21;48.55;100781.66;6115085;23;20025;-93
2023/06/11 01:30:35;;;;;;;11.02;3.42;;;;;;;11.25;49.27;100783.56;6142418;23;20356;-92
2023/06/11 01:33:02;;;;;;;10.68;3.50;;;;;;;11.22;48.74;100789.59;6116261;23;20049;-92
2023/06/11 01:35:35;;;;;;;4.03;2.88;;;;;;;10.99;48.10;100739.09;6141823;23;20017;-92
2023/06/11 01:38:02;;;;;;;6.28;3.22;;;;;;;11.37;47.67;100788.72;6118602;23;20009;-91
2023/06/11 01:40:35;;;;;;;11.48;3.30;;;;;;;11.17;48.65;100766.91;6151511;23;20020;-89
2023/06/11 01:43:02;;;;;;;9.45;3.22;;;;;;;11.38;47.83;100795.81;6175837;23;20020;-89
2023/06/11 01:45:32;;;;;;;11.50;3.13;;;;;;;11.04;47.75;100747.25;6179049;23;20029;-91
2023/06/11 01:48:00;;;;;;;13.57;3.97;;;;;;;11.17;48.19;100773.19;6132874;23;20021;-91
2023/06/11 01:50:26;;;;;;;5.93;3.20;;;;;;;11.24;47.76;100781.91;6085301;23;20095;-94
2023/06/11 01:52:52;;;;;;;7.82;3.05;;;;;;;11.05;49.47;100784.47;6104745;23;20101;-91
2023/06/11 01:55:19;;;;;;;9.77;3.40;;;;;;;10.81;48.88;100731.50;6033806;23;20046;-91
2023/06/11 01:57:46;;;;;;;8.27;3.33;;;;;;;11.33;48.30;100814.22;6057226;23;20029;-90
2023/06/11 02:00:12;;;;;;;;;;;;;;;11.35;48.53;100812.81;6058790;23;20018;-90
2023/06/11 02:02:47;;;;;;;6.40;2.95;;;;;;;11.20;48.08;100791.00;6058923;23;19917;-92
2023/06/11 02:05:15;;;;;;;10.23;3.08;;;;;;;10.90;48.64;100727.09;6056179;23;20093;-91
2023/06/11 02:07:41;;;;;;;9.95;3.60;;;;;;;11.46;47.72;100813.59;6057859;23;20025;-91
2023/06/11 02:10:08;;;;;;;8.27;3.53;;;;;;;11.50;48.18;100814.66;6085946;23;20001;-90
2023/06/11 02:12:35;;;;;;;5.03;3.20;;;;;;;11.15;47.97;100767.19;6059812;23;20054;-90
2023/06/11 02:15:01;;;;;;;9.50;3.70;;;;;;;11.32;48.32;100787.91;6083846;23;20247;-91
2023/06/11 02:17:29;;;;;;;13.10;3.05;;;;;;;11.16;49.01;100760.63;6058070;23;20018;-91
2023/06/11 02:19:55;;;;;;;13.88;3.40;;;;;;;11.51;48.88;100806.16;6056412;23;20042;-92
2023/06/11 02:22:22;;;;;;;13.60;3.35;;;;;;;11.38;48.60;100787.59;6057599;23;20025;-91
2023/06/11 02:24:48;;;;;;;16.98;3.95;;;;;;;11.27;48.01;100758.66;6082263;23;20026;-93
2023/06/11 02:27:15;;;;;;;17.17;3.75;;;;;;;11.55;48.38;100819.28;6101182;23;20017;-91
2023/06/11 02:29:42;;;;;;;10.73;3.13;;;;;;;11.46;47.71;100797.97;6164820;23;20017;-90
2023/06/11 02:32:10;;;;;;;15.02;3.80;;;;;;;11.76;48.34;100829.03;6141479;23;20024;-94
2023/06/11 02:34:36;;;;;;;15.95;3.60;;;;;;;11.73;47.88;100811.22;6118532;23;20025;-93
2023/06/11 02:37:02;;;;;;;27.40;3.92;;;;;;;11.86;49.63;100830.91;6174228;23;20070;-91
2023/06/11 02:39:29;;;;;;;16.60;4.38;;;;;;;11.82;49.22;100814.19;6123681;23;20068;-89
2023/06/11 02:41:55;;;;;;;7.53;3.17;;;;;;;11.76;48.42;100807.91;6174313;23;20017;-89
2023/06/11 02:44:23;;;;;;;6.03;3.60;;;;;;;11.83;48.13;100821.31;6122655;23;20048;-89
2023/06/11 02:46:51;;;;;;;5.80;2.90;;;;;;;11.74;47.99;100799.16;6170362;23;20033;-91
2023/06/11 02:49:17;;;;;;;6.65;2.92;;;;;;;11.59;48.64;100776.50;6167408;23;20104;-90
2023/06/11 02:51:44;;;;;;;9.80;2.65;;;;;;;11.73;48.35;100803.00;6142374;23;20104;-92
2023/06/11 02:54:10;;;;;;;7.20;2.95;;;;;;;11.59;48.07;100790.22;6167284;23;20440;-92
2023/06/11 02:56:36;;;;;;;8.77;2.80;;;;;;;11.73;47.61;100818.63;6165516;23;20029;-92
2023/06/11 02:59:03;;;;;;;19.55;2.72;;;;;;;11.63;47.65;100805.00;6167382;23;20443;-91
2023/06/11 03:01:29;;;;;;;5.75;2.67;;;;;;;11.84;47.81;100814.75;6143996;23;20036;-90
2023/06/11 03:03:57;;;;;;;8.15;2.53;;;;;;;11.77;48.06;100808.72;6141984;23;20099;-91
2023/06/11 03:06:27;;;;;;;6.10;2.97;;;;;;;11.79;47.32;100831.19;6118368;23;20105;-90
2023/06/11 03:08:53;;;;;;;3.85;2.20;;;;;;;11.73;48.46;100824.13;6138326;23;20423;-92
2023/06/11 03:11:19;;;;;;;6.38;2.13;;;;;;;11.77;47.06;100842.44;6165832;23;20018;-92
2023/06/11 03:13:47;;;;;;;4.65;2.67;;;;;;;11.66;48.20;100829.09;6116983;23;20025;-91
2023/06/11 03:16:15;;;;;;;23.52;2.85;;;;;;;11.95;47.10;100860.19;6143020;23;20025;-92
2023/06/11 03:18:42;;;;;;;8.82;2.45;;;;;;;11.98;48.39;100845.06;6117268;23;20029;-90
2023/06/11 03:21:08;;;;;;;10.63;2.47;;;;;;;11.63;46.98;100810.47;6090522;23;20045;-90
2023/06/11 03:23:35;;;;;;;6.00;2.23;;;;;;;11.95;46.93;100867.56;6137885;23;20040;-89
2023/06/11 03:26:01;;;;;;;4.38;2.25;;;;;;;11.70;47.81;100819.19;6139344;23;20263;-90
2023/06/11 03:28:33;;;;;;;7.20;2.90;;;;;;;11.91;47.27;100842.63;6143210;23;20474;-90
2023/06/11 03:31:00;;;;;;;10.93;2.53;;;;;;;11.95;47.46;100846.47;6140305;23;20017;-89
2023/06/11 03:33:26;;;;;;;8.70;2.50;;;;;;;11.96;47.13;100853.59;6138055;23;20028;-90
2023/06/11 03:35:53;;;;;;;24.23;3.20;;;;;;;11.78;46.56;100821.31;6165681;23;20021;-90
2023/06/11 03:38:23;;;;;;;8.55;2.40;;;;;;;12.04;47.19;100862.28;6138687;23;20028;-90
2023/06/11 03:40:50;;;;;;;8.32;2.75;;;;;;;11.84;47.17;100852.25;6138395;23;20023;-88
2023/06/11 03:43:16;;;;;;;11.48;2.60;;;;;;;11.79;46.63;100838.56;6138673;23;20025;-89
2023/06/11 03:45:44;;;;;;;5.13;2.20;;;;;;;11.87;46.74;100857.22;6138379;23;20025;-91
2023/06/11 03:48:10;;;;;;;3.90;2.50;;;;;;;11.87;46.25;100841.56;6137490;23;20017;-93
2023/06/11 03:50:36;;;;;;;10.43;2.85;;;;;;;11.84;46.20;100847.63;6112915;23;20459;-90
2023/06/11 03:53:02;;;;;;;12.93;2.50;;;;;;;12.05;46.41;100866.66;6114834;23;20024;-91
2023/06/11 03:55:29;;;;;;;6.28;2.30;;;;;;;12.22;47.12;100878.09;6119917;23;20017;-91
2023/06/11 03:57:56;;;;;;;5.25;2.67;;;;;;;11.95;46.36;100820.97;6144444;23;20133;-91
2023/06/11 04:00:30;;;;;;;;;;;;;;;12.34;47.59;100870.28;6094995;23;20477;-90
2023/06/11 04:02:59;;;;;;;4.78;2.45;;;;;;;12.25;44.85;100836.38;6146696;23;19924;-90
2023/06/11 04:05:33;;;;;;;10.30;2.40;;;;;;;12.29;45.00;100851.16;6146256;23;20021;-92
2023/06/11 04:08:00;;;;;;;11.35;2.67;;;;;;;12.22;45.11;100843.25;6141261;23;20017;-89
2023/06/11 04:10:27;;;;;;;7.70;2.23;;;;;;;12.11;45.86;100806.03;6172003;23;20026;-90
2023/06/11 04:13:14;;;;;;;4.75;2.30;;;;;;;12.38;44.39;100848.59;6165206;23;20025;-93
2023/06/11 04:15:40;;;;;;;8.15;2.25;;;;;;;12.55;44.86;100868.22;6091195;23;20032;-91
2023/06/11 04:18:10;;;;;;;4.05;2.10;;;;;;;12.19;45.03;100807.38;6141021;23;20053;-90
2023/06/11 04:20:36;;;;;;;9.43;2.88;;;;;;;12.36;45.23;100818.72;6140631;23;20021;-92
2023/06/11 04:23:03;;;;;;;9.93;3.38;;;;;;;12.66;45.05;100849.72;6116593;23;20048;-91
2023/06/11 04:25:33;;;;;;;10.52;4.72;;;;;;;12.70;44.12;100834.31;6140345;23;20025;-91
2023/06/11 04:28:01;;;;;;;8.30;3.00;;;;;;;12.92;44.42;100867.56;6165935;23;20021;-90
2023/06/11 04:30:27;;;;;;;14.07;2.75;;;;;;;12.65;43.69;100820.66;6142459;23;20077;-90
2023/06/11 04:32:54;;;;;;;8.18;2.60;;;;;;;12.65;43.18;100821.47;6125027;23;20395;-91
2023/06/11 04:35:47;;;;;;;10.90;2.20;;;;;;;12.69;43.77;100814.28;6150187;23;20225;-88
2023/06/11 04:38:14;;;;;;;9.77;2.60;;;;;;;13.09;43.94;100844.31;6169589;23;20021;-90
2023/06/11 04:40:41;;;;;;;4.38;2.22;;;;;;;13.28;44.14;100849.91;6147366;23;20041;-90
2023/06/11 04:43:09;;;;;;;6.45;2.25;;;;;;;13.13;42.37;100820.66;6117745;23;20001;-90
2023/06/11 04:45:38;;;;;;;13.85;2.45;;;;;;;13.21;42.52;100830.16;6143209;23;20163;-95
2023/06/11 04:48:06;;;;;;;11.43;2.55;;;;;;;13.55;42.24;100865.78;6117967;23;20177;-91
2023/06/11 04:50:36;;;;;;;5.32;2.10;;;;;;;13.45;41.65;100850.22;6141291;23;20020;-90
2023/06/11 04:53:03;;;;;;;5.88;2.30;;;;;;;13.52;40.81;100867.16;6140551;23;20041;-89
2023/06/11 04:55:32;;;;;;;18.17;2.55;;;;;;;13.40;41.04;100828.31;6164257;23;20017;-92
2023/06/11 04:58:00;;;;;;;20.77;2.53;;;;;;;13.48;40.66;100851.59;6173209;23;20081;-91
2023/06/11 05:00:29;;;;;;;10.18;2.67;;;;;;;13.34;41.63;100849.56;6121273;23;20022;-90
2023/06/11 05:03:01;;;;;;;10.40;4.07;;;;;;;13.50;40.75;100868.56;6139332;23;20025;-92
2023/06/11 05:05:32;;;;;;;16.70;2.40;;;;;;;13.56;40.77;100859.16;6114606;23;20025;-91
2023/06/11 05:07:59;;;;;;;11.15;2.55;;;;;;;13.71;40.17;100871.84;6115794;23;20026;-92
2023/06/11 05:10:25;;;;;;;5.43;2.05;;;;;;;13.39;40.24;100826.69;6143617;23;20031;-89
2023/06/11 05:12:52;;;;;;;15.53;2.57;;;;;;;13.28;40.04;100831.50;6152264;23;20017;-91
2023/06/11 05:15:19;;;;;;;20.55;2.50;;;;;;;13.70;40.46;100871.03;6145267;23;20534;-90
2023/06/11 05:17:45;;;;;;;9.20;1.92;;;;;;;13.72;40.02;100863.34;6117802;23;20346;-91
2023/06/11 05:20:13;;;;;;;3.75;2.25;;;;;;;13.76;39.74;100860.81;6141632;23;20022;-89
2023/06/11 05:22:39;;;;;;;3.53;1.97;;;;;;;13.50;39.65;100830.09;6118259;23;20067;-90
2023/06/11 05:25:06;;;;;;;8.75;2.20;;;;;;;13.80;39.25;100870.09;6144152;23;20080;-91
2023/06/11 05:27:34;;;;;;;6.88;2.10;;;;;;;14.00;39.69;100866.22;6142904;23;20390;-92
2023/06/11 05:30:03;;;;;;;10.18;2.03;;;;;;;13.78;39.44;100806.38;6119629;23;20017;-91
2023/06/11 05:32:31;;;;;;;10.05;2.20;;;;;;;14.05;38.79;100866.16;6116293;23;20076;-91
2023/06/11 05:34:57;;;;;;;6.30;1.83;;;;;;;13.85;37.82;100817.81;6119092;23;20024;-91
2023/06/11 05:37:23;;;;;;;12.57;1.90;;;;;;;14.09;39.22;100857.00;6117598;23;20061;-90
2023/06/11 05:39:51;;;;;;;8.85;2.22;;;;;;;13.99;38.65;100809.59;6123952;23;20021;-92
2023/06/11 05:42:18;;;;;;;8.90;2.20;;;;;;;14.33;38.46;100851.38;6157559;23;20021;-91
2023/06/11 05:44:44;;;;;;;10.13;2.30;;;;;;;14.38;36.60;100853.25;6145429;23;20026;-92
2023/06/11 05:47:11;;;;;;;4.63;2.17;;;;;;;14.09;36.46;100818.50;6145617;23;20018;-92
2023/06/11 05:49:38;;;;;;;15.88;2.80;;;;;;;14.46;36.71;100865.50;6121967;23;20113;-93
2023/06/11 05:52:05;;;;;;;7.63;2.40;;;;;;;14.25;36.65;100812.78;6168250;23;20105;-92
2023/06/11 05:54:33;;;;;;;18.75;3.05;;;;;;;14.55;36.94;100858.22;6119530;23;20447;-92
2023/06/11 05:56:59;;;;;;;7.70;1.98;;;;;;;14.52;36.45;100820.31;6121719;23;20018;-90
2023/06/11 05:59:28;;;;;;;10.55;2.25;;;;;;;14.65;36.94;100840.72;6122577;23;20021;-92
2023/06/11 06:01:56;;;;;;;15.18;2.38;;;;;;;14.66;35.84;100840.41;6172047;23;20092;-92
2023/06/11 06:04:22;;;;;;;8.63;2.03;;;;;;;14.54;34.51;100829.91;6119326;23;20045;-91
2023/06/11 06:06:48;;;;;;;8.75;2.05;;;;;;;14.63;33.82;100849.25;6117039;23;20018;-92
2023/06/11 06:09:16;;;;;;;14.52;2.53;;;;;;;14.77;36.45;100843.81;6143635;23;20017;-89
2023/06/11 06:11:43;;;;;;;14.85;3.03;;;;;;;14.83;36.05;100809.53;6165667;23;20094;-90
2023/06/11 06:14:10;;;;;;;16.33;2.35;;;;;;;14.80;33.15;100824.75;6135653;23;20418;-86
2023/06/11 06:16:35;;;;;;;5.55;1.92;;;;;;;14.68;33.24;100832.66;6159628;23;20028;-91
2023/06/11 06:19:04;;;;;;;17.80;2.67;;;;;;;14.64;34.21;100801.38;6114938;23;20368;-87
2023/06/11 06:21:30;;;;;;;11.30;1.80;;;;;;;14.86;33.54;100830.13;6166892;23;20022;-92
2023/06/11 06:23:56;;;;;;;12.43;2.50;;;;;;;14.64;35.27;100793.13;6164590;23;20027;-88
2023/06/11 06:26:23;;;;;;;23.20;2.60;;;;;;;14.55;30.08;100784.72;6163437;23;20041;-89
2023/06/11 06:28:53;;;;;;;20.83;2.65;;;;;;;14.75;29.93;100813.81;6140404;23;20017;-92
2023/06/11 06:31:22;;;;;;;7.68;2.22;;;;;;;14.87;32.30;100796.00;6141382;23;20028;-89
2023/06/11 06:33:51;;;;;;;18.38;2.53;;;;;;;14.94;30.62;100793.66;6166253;23;20013;-93
2023/06/11 06:36:20;;;;;;;5.88;1.85;;;;;;;14.85;32.38;100771.50;6160125;23;20017;-91
2023/06/11 06:38:47;;;;;;;24.80;2.60;;;;;;;14.96;31.20;100786.69;6109605;23;20017;-90
2023/06/11 06:41:17;;;;;;;6.82;2.08;;;;;;;15.15;31.38;100811.38;6161542;23;20045;-90
2023/06/11 06:43:43;;;;;;;11.70;2.20;;;;;;;15.36;31.09;100831.03;6136207;23;20032;-88
2023/06/11 06:46:13;;;;;;;13.30;2.15;;;;;;;15.50;31.18;100842.88;6159938;23;20021;-91
2023/06/11 06:48:39;;;;;;;8.15;2.25;;;;;;;15.45;32.31;100818.19;6164047;23;20017;-89
2023/06/11 06:51:06;;;;;;;18.37;2.30;;;;;;;15.38;29.64;100826.06;6160722;23;20017;-92
2023/06/11 06:53:32;;;;;;;11.50;2.78;;;;;;;15.47;30.38;100834.41;6138814;23;20249;-92
2023/06/11 06:56:00;;;;;;;15.75;2.03;;;;;;;15.54;32.09;100817.47;6163078;23;20028;-90
2023/06/11 06:58:27;;;;;;;6.30;1.85;;;;;;;15.24;30.58;100798.53;6136477;23;20103;-84
2023/06/11 07:00:54;;;;;;;8.68;2.40;;;;;;;15.16;30.51;100812.19;6159527;23;20017;-89
2023/06/11 07:03:21;;;;;;;14.52;2.30;;;;;;;15.27;31.45;100816.38;6136959;23;20021;-85
2023/06/11 07:05:48;;;;;;;15.50;2.78;;;;;;;15.52;30.54;100856.34;6166045;23;20018;-93
2023/06/11 07:08:15;;;;;;;30.20;2.67;;;;;;;15.20;30.64;100794.75;6118257;23;20018;-91
2023/06/11 07:10:50;;;;;;;10.82;2.35;;;;;;;15.54;31.13;100825.72;6095150;23;20021;-92
2023/06/11 07:13:22;;;;;;;2.95;1.98;;;;;;;15.66;31.33;100828.75;6117086;23;20028;-92
2023/06/11 07:15:50;;;;;;;7.80;2.17;;;;;;;15.53;31.00;100797.34;6140279;23;20026;-92
2023/06/11 07:18:17;;;;;;;6.10;1.80;;;;;;;15.83;31.03;100828.16;6120997;23;20073;-89
2023/06/11 07:20:44;;;;;;;7.40;2.15;;;;;;;15.77;30.37;100849.50;6142942;23;20017;-91
2023/06/11 07:23:10;;;;;;;;;;;;;;;15.80;31.22;100848.06;6118946;23;20017;-92
2023/06/11 07:25:37;;;;;;;3.72;2.30;;;;;;;15.80;31.38;100856.34;6139457;23;19943;-92
2023/06/11 07:28:05;;;;;;;12.10;2.70;;;;;;;15.71;31.28;100821.22;6140366;23;20018;-91
2023/06/11 07:30:35;;;;;;;13.55;3.28;;;;;;;16.02;32.31;100841.75;6141186;23;20018;-92
2023/06/11 07:33:02;;;;;;;12.82;2.35;;;;;;;15.82;32.36;100813.50;6140707;23;20021;-94
2023/06/11 07:35:29;;;;;;;13.70;2.55;;;;;;;15.87;30.58;100812.59;6144095;23;20037;-93
2023/06/11 07:37:55;;;;;;;14.38;2.30;;;;;;;15.67;29.03;100803.66;6141516;23;20026;-94
2023/06/11 07:40:21;;;;;;;;;;;;;;;15.91;29.81;100849.47;6093066;23;20025;-92
2023/06/11 07:42:49;;;;;;;4.15;1.95;;;;;;;15.34;29.74;100778.19;6149775;23;19932;-94
2023/06/11 07:45:17;;;;;;;22.85;2.70;;;;;;;15.56;31.16;100806.94;6103542;23;20167;-91
2023/06/11 07:47:43;;;;;;;16.02;2.35;;;;;;;16.12;31.51;100844.25;6085664;23;20033;-91
2023/06/11 07:50:11;;;;;;;25.13;3.10;;;;;;;16.38;31.94;100858.25;6146418;23;20017;-93
2023/06/11 07:52:38;;;;;;;8.48;2.33;;;;;;;16.38;31.41;100830.66;6099766;23;20533;-92
2023/06/11 07:55:12;;;;;;;8.05;2.20;;;;;;;16.55;31.04;100850.06;6145550;23;20474;-93
2023/06/11 07:57:38;;;;;;;5.43;2.07;;;;;;;16.34;31.27;100796.53;6143414;23;20068;-93
2023/06/11 08:00:12;;;;;;;22.92;2.95;;;;;;;16.38;30.86;100816.84;6117693;23;20252;-90
2023/06/11 08:02:58;;;;;;;29.67;2.55;;;;;;;16.34;30.96;100808.41;6171514;23;20024;-93
2023/06/11 08:05:26;;;;;;;37.17;3.00;;;;;;;16.16;30.69;100757.00;6121235;23;20084;-93
2023/06/11 08:07:53;;;;;;;18.00;2.45;;;;;;;16.75;30.30;100846.00;6097460;23;20382;-93
2023/06/11 08:10:19;;;;;;;11.85;2.13;;;;;;;16.59;31.25;100803.34;6122712;23;20017;-90
2023/06/11 08:12:46;;;;;;;4.80;2.10;;;;;;;16.72;29.78;100820.94;6143405;23;20080;-92
2023/06/11 08:15:12;;;;;;;7.50;2.03;;;;;;;16.87;30.49;100837.13;6145639;23;20017;-92
2023/06/11 08:17:39;;;;;;;8.32;2.30;;;;;;;16.61;29.34;100823.16;6118226;23;20028;-92
2023/06/11 08:20:07;;;;;;;6.15;2.10;;;;;;;16.47;29.51;100809.44;6096612;23;20025;-92
2023/06/11 08:22:36;;;;;;;5.75;2.25;;;;;;;16.29;29.32;100771.81;6121931;23;20025;-92
2023/06/11 08:25:02;;;;;;;9.50;2.38;;;;;;;16.81;29.06;100850.25;6103761;23;20033;-94
2023/06/11 08:27:29;;;;;;;10.45;2.47;;;;;;;16.43;31.20;100759.59;6086521;23;20028;-92
2023/06/11 08:29:56;;;;;;;36.70;3.37;;;;;;;16.95;30.22;100810.66;6114483;23;20018;-93
2023/06/11 08:32:29;;;;;;;9.18;2.28;;;;;;;16.99;27.43;100801.44;6139804;23;20053;-93
2023/06/11 08:34:57;;;;;;;16.88;2.70;;;;;;;16.58;28.07;100761.09;6117019;23;20018;-89
2023/06/11 08:37:23;;;;;;;32.40;2.80;;;;;;;16.65;28.47;100813.94;6063905;23;20014;-92
2023/06/11 08:39:52;;;;;;;10.50;2.42;;;;;;;16.27;29.22;100777.69;6140799;23;20028;-95
2023/06/11 08:42:18;;;;;;;9.15;2.13;;;;;;;16.35;29.36;100790.69;6042000;23;20064;-92
2023/06/11 08:44:45;;;;;;;4.47;2.08;;;;;;;16.05;28.59;100750.91;6036875;23;20030;-93
2023/06/11 08:47:14;;;;;;;9.27;2.20;;;;;;;16.22;28.37;100752.94;6059844;23;20026;-93
2023/06/11 08:52:56;;;;;;;23.25;2.40;;;;;;;16.23;29.52;100742.75;6180049;23;20013;-91
2023/06/11 08:55:25;;;;;;;8.73;2.20;;;;;;;16.84;29.08;100816.47;6164392;23;20013;-91
2023/06/11 08:57:54;;;;;;;18.48;2.28;;;;;;;16.47;28.63;100715.59;6129699;23;20021;-93
2023/06/11 09:00:25;;;;;;;9.30;2.25;;;;;;;16.65;30.05;100702.66;6124849;23;20044;-93
2023/06/11 09:03:04;;;;;;;9.65;2.38;;;;;;;16.91;28.27;100733.16;6101462;23;20025;-93
2023/06/11 09:05:35;;;;;;;7.85;2.08;;;;;;;17.00;27.50;100735.94;6101936;23;20010;-93
2023/06/11 09:08:09;;;;;;;18.88;2.72;;;;;;;16.99;27.80;100760.00;6123202;23;20022;-93
2023/06/11 09:10:50;;;;;;;25.33;3.10;;;;;;;16.81;29.26;100723.22;6120190;23;20049;-94
2023/06/11 09:13:21;;;;;;;33.63;3.97;;;;;;;17.23;29.27;100778.09;6142409;23;20042;-93
2023/06/11 09:15:58;;;;;;;7.40;2.25;;;;;;;16.89;28.29;100719.69;6104644;23;20001;-94
2023/06/11 09:18:30;;;;;;;11.75;2.15;;;;;;;17.30;30.53;100742.50;6154835;23;20013;-92
2023/06/11 09:21:09;;;;;;;24.55;2.47;;;;;;;17.42;28.70;100759.28;6099650;23;20021;-93
2023/06/11 09:23:41;;;;;;;16.30;2.40;;;;;;;17.19;28.37;100739.25;6127926;23;20032;-94
2023/06/11 09:26:17;;;;;;;7.20;2.53;;;;;;;17.10;28.29;100716.31;6148286;23;20022;-91
2023/06/11 09:28:46;;;;;;;13.88;2.10;;;;;;;17.44;28.67;100747.88;6099173;23;20029;-90
2023/06/11 09:31:12;;;;;;;10.25;2.83;;;;;;;17.98;29.18;100785.19;6123721;23;20017;-92
2023/06/11 09:33:48;;;;;;;3.55;2.17;;;;;;;17.88;27.55;100755.09;6123238;23;20043;-92
2023/06/11 09:36:17;;;;;;;4.53;1.85;;;;;;;17.69;27.24;100711.13;6147183;23;20052;-90
2023/06/11 09:38:46;;;;;;;4.97;2.05;;;;;;;17.86;26.83;100740.75;6147415;23;20447;-92
2023/06/11 09:41:16;;;;;;;11.82;2.47;;;;;;;18.05;27.07;100779.97;6118054;23;20018;-90
2023/06/11 09:43:43;;;;;;;5.20;2.20;;;;;;;17.61;26.25;100740.41;6113829;23;20108;-89
2023/06/11 09:46:31;;;;;;;11.95;2.50;;;;;;;17.49;27.22;100718.13;6118854;23;20013;-92
2023/06/11 09:49:00;;;;;;;16.40;2.65;;;;;;;17.48;28.42;100694.41;6149108;23;20013;-92
2023/06/11 09:51:31;;;;;;;11.45;2.35;;;;;;;17.97;28.44;100724.63;6123286;23;20018;-93
2023/06/11 09:53:59;;;;;;;22.70;2.90;;;;;;;18.02;29.09;100702.31;6099717;23;20018;-93
2023/06/11 09:56:30;;;;;;;11.98;2.67;;;;;;;18.38;27.11;100732.34;6095824;23;20058;-92
2023/06/11 09:58:59;;;;;;;10.05;2.35;;;;;;;18.00;28.34;100671.38;6097786;23;20048;-91
2023/06/11 10:01:29;;;;;;;9.18;2.28;;;;;;;18.52;27.25;100738.47;6066079;23;20018;-86
2023/06/11 10:04:04;;;;;;;18.45;2.63;;;;;;;18.77;26.47;100758.94;6119306;23;20044;-88
2023/06/11 10:06:35;;;;;;;8.65;2.22;;;;;;;18.72;27.33;100730.59;6101765;23;20049;-87
2023/06/11 10:09:06;;;;;;;6.47;2.05;;;;;;;18.84;25.80;100721.56;6106985;23;20506;-86
2023/06/11 10:11:40;;;;;;;14.02;2.58;;;;;;;18.71;26.38;100704.03;6125305;23;20039;-87
2023/06/11 10:14:20;;;;;;;16.63;3.10;;;;;;;19.00;25.09;100717.88;6048109;23;20018;-88
2023/06/11 10:16:51;;;;;;;5.75;2.45;;;;;;;18.97;25.64;100745.44;6097874;23;20026;-88
2023/06/11 10:19:18;;;;;;;14.32;2.30;;;;;;;19.14;25.88;100739.81;6054426;23;20022;-87
2023/06/11 10:21:59;;;;;;;10.65;2.30;;;;;;;18.68;25.88;100707.47;6117044;23;20741;-93
2023/06/11 10:24:29;;;;;;;6.97;2.63;;;;;;;18.62;26.58;100694.94;6138117;23;20022;-89
2023/06/11 10:27:12;;;;;;;9.80;2.63;;;;;;;18.76;28.21;100706.63;6087931;23;20017;-87
2023/06/11 10:29:46;;;;;;;11.07;2.22;;;;;;;18.72;25.95;100733.38;6136235;23;20022;-89
2023/06/11 10:32:16;;;;;;;13.07;2.70;;;;;;;18.83;27.42;100722.72;6134388;23;20018;-87
2023/06/11 10:34:43;;;;;;;3.58;2.05;;;;;;;18.73;24.99;100712.81;6105370;23;20453;-89
2023/06/11 10:37:10;;;;;;;17.95;2.50;;;;;;;18.41;25.63;100705.94;6130444;23;20116;-90
2023/06/11 10:39:48;;;;;;;9.73;2.40;;;;;;;18.50;27.54;100688.13;6128424;23;20020;-91
2023/06/11 10:42:22;;;;;;;10.32;2.25;;;;;;;18.60;27.68;100673.09;6122843;23;20017;-90
2023/06/11 10:44:48;;;;;;;5.25;2.10;;;;;;;18.95;28.18;100700.66;6155671;23;20022;-89
2023/06/11 10:47:16;;;;;;;8.77;2.22;;;;;;;18.90;27.51;100695.28;6161593;23;20021;-89
2023/06/11 10:49:43;;;;;;;8.88;2.33;;;;;;;19.05;27.79;100689.16;6141162;23;20025;-92
2023/06/11 10:52:12;;;;;;;11.10;2.28;;;;;;;19.02;27.94;100682.34;6133795;23;20103;-88
2023/06/11 10:54:50;;;;;;;13.93;2.67;;;;;;;19.58;28.19;100711.78;6154406;23;20021;-88
2023/06/11 10:57:16;;;;;;;10.88;2.83;;;;;;;19.62;27.15;100666.34;6132116;23;20020;-91
2023/06/11 10:59:42;;;;;;;5.00;2.45;;;;;;;19.46;26.00;100651.50;6126127;23;20465;-88
2023/06/11 11:02:13;;;;;;;10.77;2.47;;;;;;;19.59;25.23;100714.19;6122958;23;20033;-87
2023/06/11 11:04:51;;;;;;;14.98;2.85;;;;;;;19.78;25.56;100716.50;6079051;23;20021;-89
2023/06/11 11:07:18;;;;;;;10.32;2.38;;;;;;;19.57;24.93;100680.44;6125535;23;20022;-88
2023/06/11 11:09:44;;;;;;;88.97;6.10;;;;;;;19.86;27.09;100692.59;6125324;23;20022;-89
2023/06/11 11:12:11;;;;;;;8.30;2.70;;;;;;;19.78;25.75;100665.75;6121550;23;20855;-89
2023/06/11 11:14:37;;;;;;;;;;;;;;;19.79;24.66;100693.16;6099128;23;20009;-90
2023/06/11 11:17:04;;;;;;;7.57;2.47;;;;;;;19.06;25.00;100668.63;6119671;23;20398;-90
2023/06/11 11:19:32;;;;;;;7.93;2.60;;;;;;;18.81;25.34;100658.50;6125892;23;20045;-90
2023/06/11 11:21:58;;;;;;;43.33;4.43;;;;;;;19.06;25.15;100684.44;6098780;23;20097;-86
2023/06/11 11:24:24;;;;;;;5.25;2.40;;;;;;;19.07;26.52;100688.81;6120597;23;20033;-88
2023/06/11 11:26:56;;;;;;;10.55;2.58;;;;;;;18.84;25.42;100674.47;6102509;23;20021;-92
2023/06/11 11:29:28;;;;;;;13.93;3.13;;;;;;;18.85;25.99;100670.56;6133946;23;20022;-94
2023/06/11 11:32:04;;;;;;;8.55;2.63;;;;;;;19.21;26.25;100697.72;6135797;23;20022;-92
2023/06/11 11:34:32;;;;;;;11.95;2.58;;;;;;;19.00;26.67;100656.09;6082968;23;20034;-93